Time;durP1;ratioP1;P1;durP2;ratioP2;P2;SDS_P1;SDS_P2;PMS_P1;PMS_P2;Temp;Humidity;BMP_temperature;BMP_pressure;BME280_temperature;BME280_humidity;BME280_pressure;Samples;Min_cycle;Max_cycle;Signal;HPM_P1;HPM_P2
2022/08/23 00:00:17;;;;;;;8.40;6.97;;;;;;;;;;5109263;28;20227;-83
2022/08/23 00:02:43;;;;;;;6.70;6.07;;;;;;;;;;5110794;28;20200;-83
2022/08/23 00:05:10;;;;;;;6.97;6.37;;;;;;;;;;5092094;28;20223;-84
2022/08/23 00:07:38;;;;;;;9.00;5.93;;;;;;;;;;5103740;28;20203;-83
2022/08/23 00:10:04;;;;;;;7.70;7.10;;;;;;;;;;5085794;28;20204;-83
2022/08/23 00:12:31;;;;;;;8.43;7.53;;;;;;;;;;5115012;28;20581;-83
2022/08/23 00:14:58;;;;;;;7.10;6.50;;;;;;;;;;5114518;27;20677;-83
2022/08/23 00:17:26;;;;;;;7.43;6.30;;;;;;;;;;5114182;28;20237;-83
2022/08/23 00:19:52;;;;;;;7.93;7.13;;;;;;;;;;5102549;28;20228;-82
2022/08/23 00:22:19;;;;;;;6.70;6.10;;;;;;;;;;5097965;28;20207;-83
2022/08/23 00:24:45;;;;;;;7.30;5.97;;;;;;;;;;5104706;28;20670;-83
2022/08/23 00:27:13;;;;;;;7.20;6.60;;;;;;;;;;5094442;28;20219;-83
2022/08/23 00:29:41;;;;;;;6.60;6.07;;;;;;;;;;5092555;28;20224;-84
2022/08/23 00:32:11;;;;;;;7.90;6.20;;;;;;;;;;5094559;28;20566;-83
2022/08/23 00:34:39;;;;;;;8.70;6.93;;;;;;;;;;5093916;28;20220;-83
2022/08/23 00:37:06;;;;;;;7.23;6.67;;;;;;;;;;5094145;28;20586;-83
2022/08/23 00:39:33;;;;;;;7.53;6.83;;;;;;;;;;5112992;28;20227;-83
2022/08/23 00:42:00;;;;;;;9.07;7.23;;;;;;;;;;5114117;28;20286;-82
2022/08/23 00:50:03;;;;;;;6.97;6.43;;;;;;;;;;5114037;28;20203;-83
2022/08/23 00:52:32;;;;;;;7.23;6.53;;;;;;;;;;5114112;28;20208;-83
2022/08/23 00:54:59;;;;;;;7.17;6.47;;;;;;;;;;5107546;28;20291;-83
2022/08/23 00:57:27;;;;;;;7.73;7.00;;;;;;;;;;5106004;28;20286;-83
2022/08/23 00:59:54;;;;;;;6.97;6.37;;;;;;;;;;5102204;28;20232;-83
2022/08/23 01:02:21;;;;;;;7.23;6.53;;;;;;;;;;5093308;28;20200;-83
2022/08/23 01:04:50;;;;;;;7.27;6.53;;;;;;;;;;5110239;28;20252;-83
2022/08/23 01:07:21;;;;;;;12.20;6.77;;;;;;;;;;5104345;28;20200;-83
2022/08/23 01:09:48;;;;;;;8.10;6.70;;;;;;;;;;5109311;28;20213;-85
2022/08/23 01:12:18;;;;;;;7.90;7.10;;;;;;;;;;5113604;28;20195;-84
2022/08/23 01:14:47;;;;;;;14.30;7.33;;;;;;;;;;5113312;28;20199;-84
2022/08/23 01:17:16;;;;;;;7.93;7.13;;;;;;;;;;5105850;28;20200;-83
2022/08/23 01:19:46;;;;;;;7.17;6.57;;;;;;;;;;5092729;28;20674;-84
2022/08/23 01:22:15;;;;;;;13.80;6.60;;;;;;;;;;5099051;28;20206;-85
2022/08/23 01:24:44;;;;;;;12.23;6.77;;;;;;;;;;5112978;28;20681;-84
2022/08/23 01:27:11;;;;;;;10.10;7.27;;;;;;;;;;5098963;28;20268;-85
2022/08/23 01:29:38;;;;;;;7.40;6.70;;;;;;;;;;5103958;28;20590;-83
2022/08/23 01:32:05;;;;;;;6.93;6.27;;;;;;;;;;5088958;28;20586;-83
2022/08/23 01:34:31;;;;;;;8.17;7.10;;;;;;;;;;5112715;28;20206;-84
2022/08/23 01:36:58;;;;;;;8.73;7.77;;;;;;;;;;5088661;28;20205;-84
2022/08/23 01:39:25;;;;;;;7.50;6.57;;;;;;;;;;5108583;28;20209;-83
2022/08/23 01:41:53;;;;;;;7.77;7.07;;;;;;;;;;5092854;28;20225;-83
2022/08/23 01:44:19;;;;;;;6.90;6.27;;;;;;;;;;5105155;28;20700;-84
2022/08/23 01:46:46;;;;;;;7.63;6.37;;;;;;;;;;5112789;28;20207;-83
2022/08/23 01:49:13;;;;;;;9.00;6.93;;;;;;;;;;5112616;28;20204;-84
2022/08/23 01:51:40;;;;;;;7.40;6.23;;;;;;;;;;5112243;28;20712;-84
2022/08/23 01:54:06;;;;;;;8.17;7.43;;;;;;;;;;5112219;28;20211;-84
2022/08/23 01:56:33;;;;;;;7.40;6.77;;;;;;;;;;5112227;28;20199;-83
2022/08/23 01:59:01;;;;;;;7.33;6.63;;;;;;;;;;5112819;28;20261;-84
2022/08/23 02:01:27;;;;;;;7.63;6.93;;;;;;;;;;5098144;28;20591;-83
2022/08/23 02:03:54;;;;;;;7.33;6.77;;;;;;;;;;5092038;28;20204;-83
2022/08/23 02:06:21;;;;;;;7.80;7.10;;;;;;;;;;5093528;28;20596;-84
2022/08/23 02:09:03;;;;;;;8.30;6.73;;;;;;;;;;5112454;28;20642;-83
2022/08/23 02:11:31;;;;;;;7.60;7.00;;;;;;;;;;5096003;28;20200;-84
2022/08/23 02:13:58;;;;;;;9.67;7.77;;;;;;;;;;5089459;28;20204;-83
2022/08/23 02:16:27;;;;;;;7.23;6.73;;;;;;;;;;5089867;28;20200;-85
2022/08/23 02:18:54;;;;;;;9.00;7.53;;;;;;;;;;5104282;28;20195;-84
2022/08/23 02:21:21;;;;;;;7.60;6.93;;;;;;;;;;5112220;28;20229;-85
2022/08/23 02:23:50;;;;;;;7.53;6.63;;;;;;;;;;5097627;28;20249;-85
2022/08/23 02:26:16;;;;;;;7.33;6.63;;;;;;;;;;5111937;28;20207;-85
2022/08/23 02:28:43;;;;;;;7.37;6.87;;;;;;;;;;5097109;28;20228;-87
2022/08/23 02:31:10;;;;;;;9.73;6.53;;;;;;;;;;5077493;28;20257;-85
2022/08/23 02:33:38;;;;;;;7.80;7.10;;;;;;;;;;5104206;28;20588;-85
2022/08/23 02:36:04;;;;;;;7.10;6.50;;;;;;;;;;5078816;28;20276;-85
2022/08/23 02:38:31;;;;;;;7.10;6.50;;;;;;;;;;5102166;28;20203;-85
2022/08/23 02:40:57;;;;;;;6.20;5.70;;;;;;;;;;5111750;28;20683;-85
2022/08/23 02:43:24;;;;;;;8.30;6.97;;;;;;;;;;5111518;28;20207;-85
2022/08/23 02:45:51;;;;;;;7.30;6.60;;;;;;;;;;5097510;28;20204;-85
2022/08/23 02:48:18;;;;;;;7.33;6.63;;;;;;;;;;5111714;28;20237;-84
2022/08/23 02:50:46;;;;;;;10.43;7.40;;;;;;;;;;5111645;28;20798;-85
2022/08/23 02:53:13;;;;;;;7.60;6.73;;;;;;;;;;5106070;28;20642;-84
2022/08/23 02:55:39;;;;;;;7.27;6.67;;;;;;;;;;5091530;28;20223;-85
2022/08/23 02:58:06;;;;;;;6.13;5.57;;;;;;;;;;5109169;28;20257;-85
2022/08/23 03:00:32;;;;;;;6.00;5.60;;;;;;;;;;5111612;28;20235;-85
2022/08/23 03:02:59;;;;;;;6.17;5.60;;;;;;;;;;5111569;28;20604;-85
2022/08/23 03:05:25;;;;;;;7.80;7.03;;;;;;;;;;5111534;28;20204;-85
2022/08/23 03:07:53;;;;;;;6.20;5.70;;;;;;;;;;5097062;28;20685;-85
2022/08/23 03:10:20;;;;;;;8.80;6.67;;;;;;;;;;5091232;28;20634;-85
2022/08/23 03:12:46;;;;;;;6.27;5.77;;;;;;;;;;5103735;28;20267;-86
2022/08/23 03:15:13;;;;;;;7.60;6.27;;;;;;;;;;5111507;28;20208;-84
2022/08/23 03:17:39;;;;;;;7.17;6.60;;;;;;;;;;5111704;28;20201;-85
2022/08/23 03:20:07;;;;;;;6.83;6.33;;;;;;;;;;5096952;28;20231;-84
2022/08/23 03:22:33;;;;;;;9.43;7.13;;;;;;;;;;5101847;28;20249;-84
2022/08/23 03:25:01;;;;;;;7.37;6.77;;;;;;;;;;5106485;28;20260;-85
2022/08/23 03:27:30;;;;;;;7.43;6.70;;;;;;;;;;5107385;28;20208;-85
2022/08/23 03:29:56;;;;;;;6.73;6.13;;;;;;;;;;5093208;28;20234;-85
2022/08/23 03:32:23;;;;;;;7.57;7.00;;;;;;;;;;5111407;28;20199;-84
2022/08/23 03:34:49;;;;;;;7.10;6.40;;;;;;;;;;5092954;28;20207;-84
2022/08/23 03:37:16;;;;;;;9.57;6.73;;;;;;;;;;5090241;28;20204;-85
2022/08/23 03:39:43;;;;;;;10.10;7.67;;;;;;;;;;5110280;28;20199;-85
2022/08/23 03:42:11;;;;;;;6.40;5.73;;;;;;;;;;5114917;28;20231;-85
2022/08/23 03:44:38;;;;;;;7.67;6.53;;;;;;;;;;5100476;28;20199;-85
2022/08/23 03:47:05;;;;;;;6.27;5.63;;;;;;;;;;5106040;28;20207;-84
2022/08/23 03:49:32;;;;;;;6.63;5.77;;;;;;;;;;5095529;28;20232;-85
2022/08/23 03:51:59;;;;;;;6.67;5.90;;;;;;;;;;5115005;28;20287;-85
2022/08/23 03:54:25;;;;;;;8.27;7.30;;;;;;;;;;5114907;28;20203;-85
2022/08/23 03:56:54;;;;;;;6.83;6.03;;;;;;;;;;5114568;28;20211;-84
2022/08/23 03:59:22;;;;;;;6.13;5.63;;;;;;;;;;5115228;28;20203;-83
2022/08/23 04:01:49;;;;;;;7.57;5.57;;;;;;;;;;5106149;28;20636;-85
2022/08/23 04:04:16;;;;;;;7.07;6.47;;;;;;;;;;5084929;28;20212;-86
2022/08/23 04:06:43;;;;;;;8.33;6.53;;;;;;;;;;5092031;28;20310;-78
2022/08/23 04:09:10;;;;;;;7.20;6.60;;;;;;;;;;5098797;27;20261;-83
2022/08/23 04:11:37;;;;;;;6.47;5.80;;;;;;;;;;5098369;28;20564;-84
2022/08/23 04:14:05;;;;;;;7.40;6.30;;;;;;;;;;5089301;28;20211;-84
2022/08/23 04:16:36;;;;;;;7.20;6.20;;;;;;;;;;5114372;28;20639;-84
2022/08/23 04:19:02;;;;;;;6.17;5.67;;;;;;;;;;5114345;28;20743;-85
2022/08/23 04:21:29;;;;;;;6.93;6.10;;;;;;;;;;5114082;28;20284;-85
2022/08/23 04:23:55;;;;;;;7.93;7.23;;;;;;;;;;5100431;28;20680;-85
2022/08/23 04:26:22;;;;;;;6.57;6.17;;;;;;;;;;5113741;28;20210;-85
2022/08/23 04:28:49;;;;;;;5.90;5.50;;;;;;;;;;5099749;27;20227;-85
2022/08/23 04:31:16;;;;;;;5.93;5.37;;;;;;;;;;5114539;28;20285;-85
2022/08/23 04:33:43;;;;;;;5.30;4.80;;;;;;;;;;5113855;28;20640;-85
2022/08/23 04:36:10;;;;;;;6.97;6.17;;;;;;;;;;5109021;28;20195;-85
2022/08/23 04:38:37;;;;;;;6.53;5.47;;;;;;;;;;5078767;28;20894;-85
2022/08/23 04:43:47;;;;;;;6.07;5.57;;;;;;;;;;5082091;28;20214;-85
2022/08/23 04:46:15;;;;;;;5.70;5.27;;;;;;;;;;5107720;28;20272;-85
2022/08/23 04:48:42;;;;;;;5.63;5.23;;;;;;;;;;5105748;28;20235;-85
2022/08/23 04:51:10;;;;;;;5.73;5.23;;;;;;;;;;5106805;28;20206;-85
2022/08/23 04:53:37;;;;;;;5.90;5.40;;;;;;;;;;5107014;28;20955;-85
2022/08/23 04:56:04;;;;;;;5.40;4.90;;;;;;;;;;5103929;28;20211;-85
2022/08/23 04:58:31;;;;;;;6.23;5.63;;;;;;;;;;5113383;28;20250;-85
2022/08/23 05:00:58;;;;;;;5.70;5.30;;;;;;;;;;5113335;28;20241;-86
2022/08/23 05:03:25;;;;;;;6.13;5.53;;;;;;;;;;5113041;28;20207;-86
2022/08/23 05:05:52;;;;;;;7.50;5.97;;;;;;;;;;5113548;28;20577;-86
2022/08/23 05:08:20;;;;;;;5.80;5.27;;;;;;;;;;5113438;28;20227;-86
2022/08/23 05:10:47;;;;;;;6.80;6.20;;;;;;;;;;5113470;28;20204;-86
2022/08/23 05:13:14;;;;;;;6.40;5.63;;;;;;;;;;5113789;28;20210;-86
2022/08/23 05:15:40;;;;;;;6.17;5.77;;;;;;;;;;5113157;27;20599;-86
2022/08/23 05:18:07;;;;;;;6.00;5.50;;;;;;;;;;5113306;28;20298;-86
2022/08/23 05:20:34;;;;;;;6.40;5.90;;;;;;;;;;5112953;28;20207;-86
2022/08/23 05:23:01;;;;;;;7.03;5.90;;;;;;;;;;5093599;28;20690;-87
2022/08/23 05:25:48;;;;;;;7.27;5.97;;;;;;;;;;5102716;28;20204;-86
2022/08/23 05:28:18;;;;;;;6.70;6.00;;;;;;;;;;5093704;28;20270;-87
2022/08/23 05:30:45;;;;;;;7.30;6.60;;;;;;;;;;5109943;28;20203;-87
2022/08/23 05:33:12;;;;;;;6.20;5.70;;;;;;;;;;5104074;28;20208;-86
2022/08/23 05:35:39;;;;;;;6.27;5.80;;;;;;;;;;5093456;28;21018;-87
2022/08/23 05:38:05;;;;;;;6.83;6.30;;;;;;;;;;5112908;28;20203;-87
2022/08/23 05:40:33;;;;;;;7.40;6.70;;;;;;;;;;5112876;28;20263;-87
2022/08/23 05:43:00;;;;;;;15.40;6.73;;;;;;;;;;5112679;28;20214;-87
2022/08/23 05:45:26;;;;;;;8.80;7.27;;;;;;;;;;5089535;27;20258;-87
2022/08/23 05:47:53;;;;;;;7.23;6.73;;;;;;;;;;5093937;28;20203;-87
2022/08/23 05:50:21;;;;;;;6.53;5.93;;;;;;;;;;5112830;28;20203;-87
2022/08/23 05:52:47;;;;;;;6.73;6.10;;;;;;;;;;5113077;28;20219;-88
2022/08/23 05:55:14;;;;;;;7.17;6.57;;;;;;;;;;5112757;28;20214;-87
2022/08/23 05:57:42;;;;;;;7.20;6.57;;;;;;;;;;5084091;28;20216;-88
2022/08/23 06:00:11;;;;;;;6.63;6.10;;;;;;;;;;5099393;28;20195;-87
2022/08/23 06:02:37;;;;;;;7.57;6.97;;;;;;;;;;5111775;28;20724;-87
2022/08/23 06:05:04;;;;;;;6.37;5.87;;;;;;;;;;5112323;28;20203;-87
2022/08/23 06:07:33;;;;;;;6.87;6.37;;;;;;;;;;5112416;28;20249;-87
2022/08/23 06:09:59;;;;;;;7.67;7.00;;;;;;;;;;5112193;28;20202;-87
2022/08/23 06:12:26;;;;;;;7.63;7.03;;;;;;;;;;5102754;28;20591;-87
2022/08/23 06:14:54;;;;;;;9.63;6.83;;;;;;;;;;5092259;28;20208;-87
2022/08/23 06:17:21;;;;;;;7.57;6.90;;;;;;;;;;5100187;28;20252;-87
2022/08/23 06:19:47;;;;;;;6.87;6.27;;;;;;;;;;5083166;28;20213;-87
2022/08/23 06:22:15;;;;;;;9.63;8.27;;;;;;;;;;5098448;28;20222;-86
2022/08/23 06:24:42;;;;;;;9.67;7.17;;;;;;;;;;5111968;28;20207;-86
2022/08/23 06:27:08;;;;;;;22.63;7.90;;;;;;;;;;5112057;28;20647;-86
2022/08/23 06:29:35;;;;;;;7.33;6.63;;;;;;;;;;5111918;28;20293;-86
2022/08/23 06:32:03;;;;;;;8.17;7.47;;;;;;;;;;5099107;28;20204;-86
2022/08/23 06:34:32;;;;;;;9.47;8.23;;;;;;;;;;5100500;28;20208;-85
2022/08/23 06:37:00;;;;;;;8.10;7.30;;;;;;;;;;5095102;28;20211;-86
2022/08/23 06:39:28;;;;;;;7.70;7.10;;;;;;;;;;5111597;28;20203;-86
2022/08/23 06:41:59;;;;;;;9.03;8.23;;;;;;;;;;5112127;28;20234;-86
2022/08/23 06:44:26;;;;;;;7.43;6.67;;;;;;;;;;5108233;28;20195;-85
2022/08/23 06:46:55;;;;;;;16.37;9.13;;;;;;;;;;5101119;28;20207;-85
2022/08/23 06:49:23;;;;;;;9.07;8.27;;;;;;;;;;5109461;28;20203;-84
2022/08/23 06:51:51;;;;;;;10.67;9.67;;;;;;;;;;5099673;28;20637;-84
2022/08/23 06:54:19;;;;;;;10.87;9.03;;;;;;;;;;5111230;28;20230;-84
2022/08/23 06:56:46;;;;;;;9.80;8.83;;;;;;;;;;5111699;28;20290;-85
2022/08/23 06:59:13;;;;;;;11.33;10.23;;;;;;;;;;5111227;28;20731;-84
2022/08/23 07:01:41;;;;;;;10.67;9.57;;;;;;;;;;5111095;28;20234;-84
2022/08/23 07:04:09;;;;;;;10.40;9.43;;;;;;;;;;5110855;28;20207;-84
2022/08/23 07:06:37;;;;;;;12.70;11.50;;;;;;;;;;5096598;28;20207;-84
2022/08/23 07:09:05;;;;;;;10.80;9.87;;;;;;;;;;5111141;28;20642;-83
2022/08/23 07:11:32;;;;;;;13.40;11.40;;;;;;;;;;5096642;28;20208;-84
2022/08/23 07:13:59;;;;;;;11.40;10.33;;;;;;;;;;5111115;28;20222;-83
2022/08/23 07:16:26;;;;;;;11.10;10.00;;;;;;;;;;5110878;28;20210;-84
2022/08/23 07:18:54;;;;;;;12.30;11.20;;;;;;;;;;5110817;28;20582;-83
2022/08/23 07:21:21;;;;;;;12.40;11.33;;;;;;;;;;5097631;28;20224;-83
2022/08/23 07:23:49;;;;;;;14.73;11.83;;;;;;;;;;5109920;28;20610;-83
2022/08/23 07:26:16;;;;;;;13.80;12.57;;;;;;;;;;5111232;28;20211;-84
2022/08/23 07:28:43;;;;;;;15.23;13.83;;;;;;;;;;5096631;28;20236;-84
2022/08/23 07:31:11;;;;;;;13.57;12.33;;;;;;;;;;5096555;28;20622;-84
2022/08/23 07:33:38;;;;;;;14.37;13.00;;;;;;;;;;5110647;28;20588;-82
2022/08/23 07:36:05;;;;;;;13.30;11.90;;;;;;;;;;5110546;28;20195;-83
2022/08/23 07:38:32;;;;;;;13.67;12.40;;;;;;;;;;5110604;28;20204;-83
2022/08/23 07:40:59;;;;;;;14.63;13.20;;;;;;;;;;5110825;28;20208;-83
2022/08/23 07:43:26;;;;;;;15.30;13.90;;;;;;;;;;5101274;28;20670;-84
2022/08/23 07:45:52;;;;;;;15.17;13.77;;;;;;;;;;5104766;28;20226;-83
2022/08/23 07:48:19;;;;;;;15.27;13.80;;;;;;;;;;5097570;28;20210;-83
2022/08/23 07:50:51;;;;;;;14.97;13.57;;;;;;;;;;5110565;28;20586;-84
2022/08/23 07:53:17;;;;;;;15.83;14.20;;;;;;;;;;5110617;28;20192;-83
2022/08/23 07:55:44;;;;;;;15.70;14.17;;;;;;;;;;5110623;28;20211;-83
2022/08/23 07:58:12;;;;;;;16.00;14.50;;;;;;;;;;5110398;28;20199;-83
2022/08/23 08:00:38;;;;;;;17.93;16.10;;;;;;;;;;5110162;28;20227;-84
2022/08/23 08:03:05;;;;;;;15.87;14.33;;;;;;;;;;5110301;28;20654;-83
2022/08/23 08:05:31;;;;;;;18.10;16.30;;;;;;;;;;5110451;28;20228;-84
2022/08/23 08:07:58;;;;;;;16.37;14.83;;;;;;;;;;5109476;28;20195;-84
2022/08/23 08:10:25;;;;;;;16.03;14.43;;;;;;;;;;5097019;28;20195;-84
2022/08/23 08:12:51;;;;;;;18.70;15.80;;;;;;;;;;5110390;28;20195;-84
2022/08/23 08:15:20;;;;;;;17.87;16.00;;;;;;;;;;5096014;28;20203;-84
2022/08/23 08:17:47;;;;;;;16.97;15.27;;;;;;;;;;5110566;28;20600;-84
2022/08/23 08:20:14;;;;;;;18.07;16.27;;;;;;;;;;5110462;28;20560;-84
2022/08/23 08:22:40;;;;;;;18.43;16.57;;;;;;;;;;5110505;28;20245;-84
2022/08/23 08:25:07;;;;;;;19.07;17.07;;;;;;;;;;5108014;28;20240;-84
2022/08/23 08:27:34;;;;;;;17.43;15.73;;;;;;;;;;5097320;28;20192;-84
2022/08/23 08:30:00;;;;;;;17.67;15.87;;;;;;;;;;5104131;28;20654;-84
2022/08/23 08:32:28;;;;;;;18.60;16.77;;;;;;;;;;5114088;28;20200;-84
2022/08/23 08:34:55;;;;;;;18.90;17.10;;;;;;;;;;5114210;28;20203;-84
2022/08/23 08:37:22;;;;;;;19.67;17.67;;;;;;;;;;5113816;28;20207;-85
2022/08/23 08:39:48;;;;;;;18.73;17.13;;;;;;;;;;5113699;28;20222;-83
2022/08/23 08:42:38;;;;;;;21.97;19.80;;;;;;;;;;5113653;28;20227;-85
2022/08/23 08:45:07;;;;;;;20.43;18.47;;;;;;;;;;5090757;28;20229;-85
2022/08/23 08:47:38;;;;;;;18.53;16.83;;;;;;;;;;5099571;28;20200;-85
2022/08/23 08:50:09;;;;;;;18.83;17.00;;;;;;;;;;5113255;28;20700;-85
2022/08/23 08:52:37;;;;;;;19.58;17.70;;;;;;;;;;5113454;28;20207;-85
2022/08/23 08:55:05;;;;;;;18.48;16.63;;;;;;;;;;5113817;28;20639;-85
2022/08/23 08:57:37;;;;;;;18.38;16.75;;;;;;;;;;5113681;28;20594;-85
2022/08/23 09:00:06;;;;;;;20.00;17.97;;;;;;;;;;5113635;28;20195;-85
2022/08/23 09:02:34;;;;;;;18.23;16.63;;;;;;;;;;5113340;28;20310;-85
2022/08/23 09:05:03;;;;;;;18.98;17.27;;;;;;;;;;5113035;28;21011;-86
2022/08/23 09:07:33;;;;;;;18.13;16.50;;;;;;;;;;5113781;28;20282;-85
2022/08/23 09:10:09;;;;;;;17.70;16.17;;;;;;;;;;5113264;28;20584;-86
2022/08/23 09:12:39;;;;;;;17.58;15.93;;;;;;;;;;5113815;28;20195;-86
2022/08/23 09:15:13;;;;;;;16.40;14.80;;;;;;;;;;5113177;28;20199;-85
2022/08/23 09:17:42;;;;;;;18.05;15.43;;;;;;;;;;5113991;28;20199;-85
2022/08/23 09:20:12;;;;;;;17.55;16.15;;;;;;;;;;5112894;28;20204;-85
2022/08/23 09:22:39;;;;;;;16.38;15.00;;;;;;;;;;5112862;28;20222;-87
2022/08/23 09:25:08;;;;;;;16.00;14.60;;;;;;;;;;5112773;27;20200;-86
2022/08/23 09:27:36;;;;;;;17.40;15.65;;;;;;;;;;5108934;28;20212;-85
2022/08/23 09:30:04;;;;;;;16.65;15.27;;;;;;;;;;5092360;28;20224;-86
2022/08/23 09:32:32;;;;;;;17.35;15.65;;;;;;;;;;5110729;28;20204;-86
2022/08/23 09:35:11;;;;;;;16.67;15.32;;;;;;;;;;5113274;28;20207;-85
2022/08/23 09:37:49;;;;;;;17.70;16.15;;;;;;;;;;5098559;27;20211;-85
2022/08/23 09:40:19;;;;;;;16.88;15.15;;;;;;;;;;5090932;28;20215;-85
2022/08/23 09:42:46;;;;;;;18.55;14.18;;;;;;;;;;5107241;28;20612;-85
2022/08/23 09:45:24;;;;;;;15.20;13.85;;;;;;;;;;5102974;28;20203;-85
2022/08/23 09:47:51;;;;;;;16.13;14.43;;;;;;;;;;5110511;28;20199;-84
2022/08/23 09:50:24;;;;;;;16.50;14.98;;;;;;;;;;5112661;27;20207;-85
2022/08/23 09:52:54;;;;;;;16.35;15.05;;;;;;;;;;5112755;28;20207;-85
2022/08/23 09:55:31;;;;;;;15.73;14.32;;;;;;;;;;5113049;28;20217;-85
2022/08/23 09:57:59;;;;;;;17.77;13.55;;;;;;;;;;5110013;28;20203;-86
2022/08/23 10:00:28;;;;;;;14.82;13.57;;;;;;;;;;5092141;28;20216;-85
2022/08/23 10:02:57;;;;;;;15.02;13.55;;;;;;;;;;5092151;28;20224;-85
2022/08/23 10:05:37;;;;;;;12.93;11.93;;;;;;;;;;5091908;28;20265;-85
2022/08/23 10:08:04;;;;;;;12.23;11.15;;;;;;;;;;5108150;28;20236;-86
2022/08/23 10:10:32;;;;;;;13.48;12.15;;;;;;;;;;5112628;28;20260;-85
2022/08/23 10:12:59;;;;;;;12.25;11.15;;;;;;;;;;5112011;28;20203;-85
2022/08/23 10:15:32;;;;;;;12.40;11.23;;;;;;;;;;5112391;28;20204;-84
2022/08/23 10:18:03;;;;;;;12.85;11.70;;;;;;;;;;5112044;28;20207;-84
2022/08/23 10:20:35;;;;;;;15.35;13.38;;;;;;;;;;5112296;28;20211;-84
2022/08/23 10:23:06;;;;;;;11.98;11.10;;;;;;;;;;5111626;28;20223;-85
2022/08/23 10:25:35;;;;;;;12.55;11.50;;;;;;;;;;5111971;28;20218;-85
2022/08/23 10:30:54;;;;;;;12.18;11.25;;;;;;;;;;5105629;28;20211;-84
2022/08/23 10:33:25;;;;;;;11.40;10.40;;;;;;;;;;5101515;28;20227;-84
2022/08/23 10:35:58;;;;;;;10.68;9.63;;;;;;;;;;5111573;28;20560;-84
2022/08/23 10:38:43;;;;;;;10.88;9.82;;;;;;;;;;5111481;28;20700;-84
2022/08/23 10:41:31;;;;;;;10.10;9.07;;;;;;;;;;5097029;28;20669;-84
2022/08/23 10:44:03;;;;;;;9.48;8.65;;;;;;;;;;5105820;28;20231;-83
2022/08/23 10:46:35;;;;;;;9.45;8.65;;;;;;;;;;5111153;28;20195;-83
2022/08/23 10:49:06;;;;;;;9.48;8.70;;;;;;;;;;5110948;28;20210;-83
2022/08/23 10:51:38;;;;;;;9.13;8.40;;;;;;;;;;5105135;28;20203;-83
2022/08/23 10:54:07;;;;;;;10.38;9.38;;;;;;;;;;5103805;28;20203;-83
2022/08/23 10:56:34;;;;;;;10.10;9.23;;;;;;;;;;5111246;28;20690;-83
2022/08/23 10:59:01;;;;;;;10.55;8.88;;;;;;;;;;5111421;28;20199;-83
2022/08/23 11:01:31;;;;;;;8.63;7.93;;;;;;;;;;5111284;28;20199;-83
2022/08/23 11:04:01;;;;;;;8.45;7.85;;;;;;;;;;5110618;28;20223;-83
2022/08/23 11:06:47;;;;;;;9.38;8.18;;;;;;;;;;5111588;28;20203;-83
2022/08/23 11:09:37;;;;;;;9.60;7.95;;;;;;;;;;5111118;28;20203;-83
2022/08/23 11:12:11;;;;;;;9.25;8.43;;;;;;;;;;5111096;28;20204;-83
2022/08/23 11:14:39;;;;;;;8.50;7.78;;;;;;;;;;5110823;28;20199;-83
2022/08/23 11:17:08;;;;;;;8.77;8.07;;;;;;;;;;5076914;28;20200;-83
2022/08/23 11:19:48;;;;;;;8.32;7.63;;;;;;;;;;5103341;28;20199;-83
2022/08/23 11:22:18;;;;;;;8.63;7.75;;;;;;;;;;5083265;28;20228;-83
2022/08/23 11:24:53;;;;;;;9.32;8.43;;;;;;;;;;5110587;28;20202;-83
2022/08/23 11:27:27;;;;;;;11.45;7.72;;;;;;;;;;5108668;28;20260;-83
2022/08/23 11:29:54;;;;;;;8.10;7.35;;;;;;;;;;5100368;28;20735;-83
2022/08/23 11:32:31;;;;;;;8.55;7.75;;;;;;;;;;5096153;28;20208;-83
2022/08/23 11:35:04;;;;;;;8.20;7.53;;;;;;;;;;5101597;28;20234;-82
2022/08/23 11:37:48;;;;;;;9.07;8.30;;;;;;;;;;5106985;28;20278;-83
2022/08/23 11:40:16;;;;;;;7.85;7.35;;;;;;;;;;5111016;28;20211;-84
2022/08/23 11:42:47;;;;;;;11.63;8.75;;;;;;;;;;5110696;28;20249;-84
2022/08/23 11:45:28;;;;;;;9.27;8.45;;;;;;;;;;5110936;28;20259;-83
2022/08/23 11:48:06;;;;;;;8.82;8.18;;;;;;;;;;5111236;28;20207;-83
2022/08/23 11:50:37;;;;;;;8.07;7.45;;;;;;;;;;5110583;28;20208;-83
2022/08/23 11:53:24;;;;;;;8.63;7.88;;;;;;;;;;5110679;28;20199;-83
2022/08/23 11:56:01;;;;;;;8.18;7.53;;;;;;;;;;5091607;28;20230;-82
2022/08/23 11:58:30;;;;;;;8.10;7.50;;;;;;;;;;5076794;28;20227;-82
2022/08/23 12:01:05;;;;;;;8.15;7.40;;;;;;;;;;5104922;28;20196;-82
2022/08/23 12:03:34;;;;;;;9.10;8.20;;;;;;;;;;5114319;28;20225;-82
2022/08/23 12:06:06;;;;;;;9.27;8.57;;;;;;;;;;5114765;28;20200;-82
2022/08/23 12:08:52;;;;;;;8.90;8.02;;;;;;;;;;5113904;28;20677;-82
2022/08/23 12:11:21;;;;;;;7.75;7.03;;;;;;;;;;5099428;28;20698;-83
2022/08/23 12:13:55;;;;;;;8.23;7.63;;;;;;;;;;5114561;28;20207;-83
2022/08/23 12:16:30;;;;;;;9.02;8.07;;;;;;;;;;5114442;28;20195;-83
2022/08/23 12:18:59;;;;;;;9.02;8.13;;;;;;;;;;5114050;28;20564;-83
2022/08/23 12:21:34;;;;;;;8.35;7.65;;;;;;;;;;5114385;28;20215;-83
2022/08/23 12:24:02;;;;;;;8.10;7.30;;;;;;;;;;5100834;28;20665;-83
2022/08/23 12:26:34;;;;;;;7.53;6.88;;;;;;;;;;5113973;28;20233;-83
2022/08/23 12:29:03;;;;;;;8.85;7.72;;;;;;;;;;5099867;27;20231;-82
2022/08/23 12:31:33;;;;;;;8.00;7.40;;;;;;;;;;5104882;28;20199;-83
2022/08/23 12:34:14;;;;;;;8.13;7.43;;;;;;;;;;5108866;28;20589;-82
2022/08/23 12:36:46;;;;;;;8.00;7.40;;;;;;;;;;5111642;28;20258;-83
2022/08/23 12:39:21;;;;;;;8.13;7.38;;;;;;;;;;5113687;28;20259;-83
2022/08/23 12:41:55;;;;;;;10.45;8.57;;;;;;;;;;5113809;27;20210;-83
2022/08/23 12:44:23;;;;;;;9.32;8.48;;;;;;;;;;5113569;28;20265;-84
2022/08/23 12:46:50;;;;;;;8.18;7.38;;;;;;;;;;5113951;28;20612;-83
2022/08/23 12:49:25;;;;;;;8.43;7.63;;;;;;;;;;5113524;28;20272;-82
2022/08/23 12:51:52;;;;;;;8.10;7.10;;;;;;;;;;5113494;28;20210;-82
2022/08/23 12:54:20;;;;;;;8.52;7.82;;;;;;;;;;5112603;28;20256;-83
2022/08/23 12:56:47;;;;;;;8.90;8.00;;;;;;;;;;5100194;28;20566;-82
2022/08/23 12:59:27;;;;;;;8.30;7.60;;;;;;;;;;5099881;28;20654;-82
2022/08/23 13:01:53;;;;;;;7.32;6.72;;;;;;;;;;5087010;28;20692;-82
2022/08/23 13:04:20;;;;;;;9.48;8.38;;;;;;;;;;5112972;28;20223;-82
2022/08/23 13:06:50;;;;;;;8.30;7.32;;;;;;;;;;5113391;28;20195;-84
2022/08/23 13:09:19;;;;;;;8.02;7.22;;;;;;;;;;5113271;27;20579;-82
2022/08/23 13:11:47;;;;;;;7.53;6.70;;;;;;;;;;5108537;28;20675;-82
2022/08/23 13:14:26;;;;;;;8.60;6.82;;;;;;;;;;5103487;28;20298;-83
2022/08/23 13:16:53;;;;;;;7.88;6.75;;;;;;;;;;5113264;28;20195;-82
2022/08/23 13:19:24;;;;;;;6.72;6.13;;;;;;;;;;5113063;28;20211;-83
2022/08/23 13:22:05;;;;;;;11.43;6.65;;;;;;;;;;5113249;28;20199;-82
2022/08/23 13:24:36;;;;;;;9.20;7.25;;;;;;;;;;5112639;27;20257;-82
2022/08/23 13:27:16;;;;;;;7.80;7.00;;;;;;;;;;5113165;28;20195;-82
2022/08/23 13:29:54;;;;;;;7.75;7.10;;;;;;;;;;5089018;28;20223;-82
2022/08/23 13:32:29;;;;;;;8.25;7.45;;;;;;;;;;5098387;28;20618;-82
2022/08/23 13:35:15;;;;;;;7.38;6.78;;;;;;;;;;5113168;28;20223;-82
2022/08/23 13:37:44;;;;;;;7.40;6.80;;;;;;;;;;5113063;28;20200;-82
2022/08/23 13:40:13;;;;;;;9.45;7.57;;;;;;;;;;5112585;28;20207;-82
2022/08/23 13:42:47;;;;;;;8.60;7.10;;;;;;;;;;5112693;28;20208;-82
2022/08/23 13:45:18;;;;;;;7.60;6.95;;;;;;;;;;5112536;28;20610;-82
2022/08/23 13:47:46;;;;;;;8.15;7.45;;;;;;;;;;5102496;28;20671;-83
2022/08/23 13:50:14;;;;;;;7.90;7.20;;;;;;;;;;5091786;28;20204;-82
2022/08/23 13:52:41;;;;;;;33.60;20.67;;;;;;;;;;5099223;28;20211;-82
2022/08/23 13:55:08;;;;;;;11.20;9.73;;;;;;;;;;5112367;28;20211;-82
2022/08/23 13:57:38;;;;;;;14.82;13.00;;;;;;;;;;5098165;28;20219;-80
2022/08/23 14:00:07;;;;;;;9.23;8.27;;;;;;;;;;5111924;28;20207;-82
2022/08/23 14:02:35;;;;;;;8.05;7.25;;;;;;;;;;5112317;28;20198;-82
2022/08/23 14:05:02;;;;;;;8.77;7.85;;;;;;;;;;5112074;28;20225;-82
2022/08/23 14:07:28;;;;;;;8.77;8.05;;;;;;;;;;5111855;28;20976;-82
2022/08/23 14:09:56;;;;;;;7.75;6.88;;;;;;;;;;5112119;28;20612;-81
2022/08/23 14:12:24;;;;;;;8.95;8.20;;;;;;;;;;5112120;28;20208;-82
2022/08/23 14:14:50;;;;;;;8.75;8.02;;;;;;;;;;5096968;28;20197;-82
2022/08/23 14:17:17;;;;;;;10.73;7.40;;;;;;;;;;5072218;28;20603;-83
2022/08/23 14:19:48;;;;;;;8.15;7.32;;;;;;;;;;5105434;28;20230;-83
2022/08/23 14:22:15;;;;;;;9.27;8.25;;;;;;;;;;5090541;28;20673;-82
2022/08/23 14:24:42;;;;;;;9.80;8.90;;;;;;;;;;5090360;28;20220;-81
2022/08/23 14:27:09;;;;;;;9.38;8.48;;;;;;;;;;5100733;28;20225;-82
2022/08/23 14:29:35;;;;;;;8.82;8.02;;;;;;;;;;5098507;28;20766;-82
2022/08/23 14:32:02;;;;;;;10.13;9.20;;;;;;;;;;5110836;28;20757;-82
2022/08/23 14:34:30;;;;;;;9.32;8.40;;;;;;;;;;5093512;28;20633;-82
2022/08/23 14:36:58;;;;;;;9.27;8.40;;;;;;;;;;5104578;28;20199;-83
2022/08/23 14:39:24;;;;;;;10.82;7.78;;;;;;;;;;5111427;28;20195;-83
2022/08/23 14:41:51;;;;;;;9.55;8.63;;;;;;;;;;5111850;28;20204;-83
2022/08/23 14:44:18;;;;;;;8.95;8.13;;;;;;;;;;5111269;28;20215;-82
2022/08/23 14:46:44;;;;;;;10.02;9.18;;;;;;;;;;5111593;28;20208;-82
2022/08/23 14:49:11;;;;;;;9.05;8.25;;;;;;;;;;5110831;28;20562;-82
2022/08/23 14:51:41;;;;;;;9.15;8.25;;;;;;;;;;5111879;28;20215;-82
2022/08/23 14:54:11;;;;;;;9.38;8.32;;;;;;;;;;5111346;28;20653;-82
2022/08/23 14:56:38;;;;;;;8.48;7.78;;;;;;;;;;5110886;28;20204;-82